createdAt,value
2023-01-11T00:00:08.480Z,978.89
2023-01-11T00:01:08.480Z,978.88
2023-01-11T00:02:08.479Z,978.85
2023-01-11T00:03:08.443Z,978.88
2023-01-11T00:04:08.455Z,978.89
2023-01-11T00:05:08.401Z,978.91
2023-01-11T00:06:08.428Z,978.85
2023-01-11T00:07:08.397Z,978.89
2023-01-11T00:08:08.387Z,978.82
2023-01-11T00:09:08.357Z,978.78
2023-01-11T00:10:08.371Z,978.79
2023-01-11T00:11:08.347Z,978.77
2023-01-11T00:12:08.356Z,978.75
2023-01-11T00:13:08.322Z,978.75
2023-01-11T00:14:08.320Z,978.82
2023-01-11T00:15:08.294Z,978.71
2023-01-11T00:16:08.368Z,978.74
2023-01-11T00:17:08.331Z,978.70
2023-01-11T00:18:08.298Z,978.78
2023-01-11T00:19:08.290Z,978.71
2023-01-11T00:20:08.277Z,978.68
2023-01-11T00:21:08.242Z,978.73
2023-01-11T00:22:08.237Z,978.69
2023-01-11T00:23:08.194Z,978.68
2023-01-11T00:24:08.247Z,978.72
2023-01-11T00:25:08.177Z,978.70
2023-01-11T00:26:08.190Z,978.69
2023-01-11T00:27:08.167Z,978.72
2023-01-11T00:28:08.209Z,978.63
2023-01-11T00:29:08.135Z,978.60
2023-01-11T00:30:08.222Z,978.59
2023-01-11T00:31:08.142Z,978.63
2023-01-11T00:32:08.126Z,978.65
2023-01-11T00:33:08.124Z,978.60
2023-01-11T00:34:08.107Z,978.64
2023-01-11T00:35:08.079Z,978.70
2023-01-11T00:36:08.078Z,978.71
2023-01-11T00:37:08.047Z,978.61
2023-01-11T00:38:08.060Z,978.58
2023-01-11T00:39:08.040Z,978.55
2023-01-11T00:40:08.072Z,978.49
2023-01-11T00:41:08.026Z,978.49
2023-01-11T00:42:08.024Z,978.39
2023-01-11T00:43:08.031Z,978.26
2023-01-11T00:44:07.992Z,978.38
2023-01-11T00:45:07.968Z,978.31
2023-01-11T00:46:08.035Z,978.34
2023-01-11T00:47:07.965Z,978.36
2023-01-11T00:48:07.979Z,978.42
2023-01-11T00:49:07.916Z,978.43
2023-01-11T00:50:07.917Z,978.46
2023-01-11T00:51:07.895Z,978.32
2023-01-11T00:52:07.968Z,978.28
2023-01-11T00:53:07.915Z,978.28
2023-01-11T00:54:07.918Z,978.28
2023-01-11T00:55:07.844Z,978.35
2023-01-11T00:56:07.869Z,978.33
2023-01-11T00:57:07.981Z,978.33
2023-01-11T00:58:07.823Z,978.26
2023-01-11T00:59:07.805Z,978.36
2023-01-11T01:00:07.824Z,978.38
2023-01-11T01:01:07.842Z,978.38
2023-01-11T01:02:07.873Z,978.40
2023-01-11T01:03:07.782Z,978.49
2023-01-11T01:04:07.769Z,978.34
2023-01-11T01:05:07.750Z,978.42
2023-01-11T01:06:07.790Z,978.37
2023-01-11T01:07:07.722Z,978.38
2023-01-11T01:08:07.733Z,978.32
2023-01-11T01:09:07.691Z,978.30
2023-01-11T01:10:07.709Z,978.36
2023-01-11T01:11:07.662Z,978.41
2023-01-11T01:12:07.675Z,978.38
2023-01-11T01:13:07.641Z,978.35
2023-01-11T01:14:07.652Z,978.35
2023-01-11T01:15:07.616Z,978.35
2023-01-11T01:16:07.647Z,978.33
2023-01-11T01:17:07.635Z,978.34
2023-01-11T01:18:07.582Z,978.29
2023-01-11T01:19:07.632Z,978.33
2023-01-11T01:20:07.596Z,978.40
2023-01-11T01:21:07.631Z,978.29
2023-01-11T01:22:07.560Z,978.34
2023-01-11T01:23:07.554Z,978.36
2023-01-11T01:24:07.565Z,978.22
2023-01-11T01:25:07.537Z,978.30
2023-01-11T01:26:07.501Z,978.26
2023-01-11T01:27:07.493Z,978.17
2023-01-11T01:28:07.452Z,978.12
2023-01-11T01:29:07.493Z,978.21
2023-01-11T01:30:07.441Z,978.26
2023-01-11T01:31:07.483Z,978.16
2023-01-11T01:32:07.442Z,978.21
2023-01-11T01:33:07.452Z,978.17
2023-01-11T01:34:07.420Z,978.16
2023-01-11T01:35:07.413Z,978.15
2023-01-11T01:36:07.390Z,978.13
2023-01-11T01:37:07.392Z,978.12
2023-01-11T01:38:07.354Z,978.10
2023-01-11T01:39:07.386Z,978.12
2023-01-11T01:40:07.335Z,978.15
2023-01-11T01:41:07.355Z,978.12
2023-01-11T01:42:07.310Z,978.13
2023-01-11T01:43:07.343Z,978.15
2023-01-11T01:44:07.370Z,978.12
2023-01-11T01:45:07.313Z,978.14
2023-01-11T01:46:07.314Z,978.10
2023-01-11T01:47:07.289Z,978.04
2023-01-11T01:48:07.251Z,978.06
2023-01-11T01:49:07.253Z,978.06
2023-01-11T01:50:07.220Z,978.07
2023-01-11T01:51:07.231Z,978.05
2023-01-11T01:52:07.200Z,978.02
2023-01-11T01:53:07.272Z,978.09
2023-01-11T01:54:07.181Z,978.13
2023-01-11T01:55:07.181Z,978.02
2023-01-11T01:56:07.160Z,978.10
2023-01-11T01:57:07.200Z,978.04
2023-01-11T01:58:07.141Z,978.02
2023-01-11T01:59:07.144Z,978.00
2023-01-11T02:00:07.101Z,978.05
2023-01-11T02:01:07.100Z,978.02
2023-01-11T02:02:07.072Z,978.04
2023-01-11T02:03:07.132Z,978.03
2023-01-11T02:04:07.071Z,978.01
2023-01-11T02:05:07.059Z,978.02
2023-01-11T02:06:07.042Z,977.97
2023-01-11T02:07:07.045Z,977.93
2023-01-11T02:08:06.999Z,977.96
2023-01-11T02:09:07.034Z,977.94
2023-01-11T02:10:07.877Z,977.86
2023-01-11T02:11:07.019Z,977.86
2023-01-11T02:12:06.961Z,977.91
2023-01-11T02:13:06.968Z,977.85
2023-01-11T02:14:06.938Z,977.91
2023-01-11T02:15:06.938Z,977.89
2023-01-11T02:16:07.006Z,977.90
2023-01-11T02:17:06.957Z,977.88
2023-01-11T02:18:06.878Z,977.89
2023-01-11T02:19:06.895Z,977.97
2023-01-11T02:20:06.871Z,977.89
2023-01-11T02:21:06.887Z,977.91
2023-01-11T02:22:06.846Z,977.94
2023-01-11T02:23:06.839Z,977.90
2023-01-11T02:24:06.817Z,977.94
2023-01-11T02:25:06.822Z,977.80
2023-01-11T02:26:06.783Z,977.91
2023-01-11T02:27:06.839Z,977.94
2023-01-11T02:28:06.769Z,977.86
2023-01-11T02:29:06.777Z,977.76
2023-01-11T02:30:06.753Z,977.78
2023-01-11T02:31:06.802Z,977.75
2023-01-11T02:32:06.728Z,977.82
2023-01-11T02:33:06.738Z,977.81
2023-01-11T02:34:06.697Z,977.84
2023-01-11T02:35:06.703Z,977.74
2023-01-11T02:36:06.676Z,977.75
2023-01-11T02:37:06.688Z,977.77
2023-01-11T02:38:06.650Z,977.74
2023-01-11T02:39:06.685Z,977.73
2023-01-11T02:40:06.626Z,977.67
2023-01-11T02:41:06.644Z,977.71
2023-01-11T02:42:06.620Z,977.68
2023-01-11T02:43:06.614Z,977.65
2023-01-11T02:44:06.578Z,977.75
2023-01-11T02:45:15.357Z,977.67
2023-01-11T02:46:06.604Z,977.71
2023-01-11T02:47:06.565Z,977.69
2023-01-11T02:48:06.535Z,977.67
2023-01-11T02:49:06.546Z,977.57
2023-01-11T02:50:06.543Z,977.50
2023-01-11T02:51:06.553Z,977.53
2023-01-11T02:52:06.539Z,977.55
2023-01-11T02:53:06.505Z,977.50
2023-01-11T02:54:06.473Z,977.55
2023-01-11T02:55:06.477Z,977.56
2023-01-11T02:56:06.472Z,977.43
2023-01-11T02:57:06.536Z,977.41
2023-01-11T02:58:06.453Z,977.46
2023-01-11T02:59:06.463Z,977.39
2023-01-11T03:00:06.425Z,977.38
2023-01-11T03:01:06.434Z,977.40
2023-01-11T03:02:06.412Z,977.41
2023-01-11T03:03:06.424Z,977.37
2023-01-11T03:04:06.375Z,977.40
2023-01-11T03:05:06.371Z,977.30
2023-01-11T03:06:06.347Z,977.36
2023-01-11T03:07:06.336Z,977.34
2023-01-11T03:08:06.321Z,977.38
2023-01-11T03:09:06.318Z,977.37
2023-01-11T03:10:07.014Z,977.37
2023-01-11T03:11:06.305Z,977.40
2023-01-11T03:12:06.259Z,977.37
2023-01-11T03:13:06.254Z,977.30
2023-01-11T03:14:06.231Z,977.26
2023-01-11T03:15:07.050Z,977.32
2023-01-11T03:16:06.312Z,977.31
2023-01-11T03:17:06.217Z,977.31
2023-01-11T03:18:06.186Z,977.27
2023-01-11T03:19:06.193Z,977.24
2023-01-11T03:20:06.190Z,977.25
2023-01-11T03:21:06.205Z,977.20
2023-01-11T03:22:06.189Z,977.19
2023-01-11T03:23:06.149Z,977.19
2023-01-11T03:24:06.123Z,977.22
2023-01-11T03:25:06.148Z,977.22
2023-01-11T03:26:06.132Z,977.25
2023-01-11T03:27:06.124Z,977.13
2023-01-11T03:28:06.109Z,977.18
2023-01-11T03:29:06.101Z,977.20
2023-01-11T03:30:06.054Z,977.11
2023-01-11T03:31:06.115Z,977.16
2023-01-11T03:32:06.027Z,977.22
2023-01-11T03:33:06.055Z,977.15
2023-01-11T03:34:06.028Z,977.15
2023-01-11T03:35:06.049Z,977.15
2023-01-11T03:36:05.983Z,977.19
2023-01-11T03:37:05.995Z,977.12
2023-01-11T03:38:05.964Z,977.04
2023-01-11T03:39:05.966Z,977.09
2023-01-11T03:40:05.957Z,977.03
2023-01-11T03:41:05.945Z,977.06
2023-01-11T03:42:05.929Z,977.07
2023-01-11T03:43:05.912Z,977.02
2023-01-11T03:44:05.889Z,977.00
2023-01-11T03:45:05.920Z,977.01
2023-01-11T03:46:05.861Z,976.92
2023-01-11T03:47:05.914Z,976.81
2023-01-11T03:48:05.833Z,976.81
2023-01-11T03:49:05.876Z,976.90
2023-01-11T03:50:05.810Z,976.95
2023-01-11T03:51:05.836Z,976.93
2023-01-11T03:52:05.789Z,976.98
2023-01-11T03:53:05.793Z,976.96
2023-01-11T03:54:05.760Z,976.93
2023-01-11T03:55:06.228Z,976.84
2023-01-11T03:56:05.779Z,976.84
2023-01-11T03:57:05.760Z,976.83
2023-01-11T03:58:05.717Z,976.88
2023-01-11T03:59:05.752Z,976.90
2023-01-11T04:00:05.709Z,976.90
2023-01-11T04:01:05.760Z,976.88
2023-01-11T04:02:05.715Z,976.86
2023-01-11T04:03:05.693Z,976.84
2023-01-11T04:04:05.702Z,976.79
2023-01-11T04:05:05.665Z,976.80
2023-01-11T04:06:05.641Z,976.83
2023-01-11T04:07:05.662Z,976.80
2023-01-11T04:08:05.601Z,976.84
2023-01-11T04:09:05.617Z,976.83
2023-01-11T04:10:05.586Z,976.87
2023-01-11T04:11:05.590Z,976.79
2023-01-11T04:12:05.565Z,976.79
2023-01-11T04:13:05.602Z,976.74
2023-01-11T04:14:05.544Z,976.68
2023-01-11T04:15:05.571Z,976.63
2023-01-11T04:16:05.594Z,976.71
2023-01-11T04:17:05.553Z,976.83
2023-01-11T04:18:05.511Z,976.73
2023-01-11T04:19:05.511Z,976.69
2023-01-11T04:20:05.485Z,976.65
2023-01-11T04:21:05.480Z,976.67
2023-01-11T04:22:05.432Z,976.63
2023-01-11T04:23:05.457Z,976.69
2023-01-11T04:24:05.430Z,976.70
2023-01-11T04:25:05.446Z,976.65
2023-01-11T04:26:05.389Z,976.60
2023-01-11T04:27:05.401Z,976.62
2023-01-11T04:28:05.374Z,976.64
2023-01-11T04:29:05.369Z,976.57
2023-01-11T04:30:05.359Z,976.54
2023-01-11T04:31:05.357Z,976.62
2023-01-11T04:32:05.328Z,976.51
2023-01-11T04:33:05.369Z,976.56
2023-01-11T04:34:05.313Z,976.57
2023-01-11T04:35:05.336Z,976.65
2023-01-11T04:36:05.289Z,976.55
2023-01-11T04:37:05.898Z,976.54
2023-01-11T04:38:05.311Z,976.46
2023-01-11T04:39:05.278Z,976.42
2023-01-11T04:40:05.237Z,976.58
2023-01-11T04:41:05.270Z,976.68
2023-01-11T04:42:05.224Z,976.61
2023-01-11T04:43:05.225Z,976.57
2023-01-11T04:44:05.254Z,976.60
2023-01-11T04:45:05.263Z,976.56
2023-01-11T04:46:05.242Z,976.55
2023-01-11T04:47:05.199Z,976.54
2023-01-11T04:48:05.151Z,976.48
2023-01-11T04:49:05.255Z,976.45
2023-01-11T04:50:05.170Z,976.45
2023-01-11T04:51:05.158Z,976.45
2023-01-11T04:52:05.168Z,976.53
2023-01-11T04:53:05.117Z,976.56
2023-01-11T04:54:05.081Z,976.54
2023-01-11T04:55:05.115Z,976.52
2023-01-11T04:56:05.082Z,976.49
2023-01-11T04:57:05.082Z,976.52
2023-01-11T04:58:05.039Z,976.53
2023-01-11T04:59:05.056Z,976.48
2023-01-11T05:00:05.025Z,976.57
2023-01-11T05:01:05.082Z,976.58
2023-01-11T05:02:04.997Z,976.56
2023-01-11T05:03:05.010Z,976.54
2023-01-11T05:04:05.051Z,976.44
2023-01-11T05:05:04.980Z,976.42
2023-01-11T05:06:04.946Z,976.41
2023-01-11T05:07:04.987Z,976.53
2023-01-11T05:08:05.030Z,976.43
2023-01-11T05:09:04.942Z,976.49
2023-01-11T05:10:04.929Z,976.50
2023-01-11T05:11:04.917Z,976.50
2023-01-11T05:12:04.896Z,976.45
2023-01-11T05:13:04.908Z,976.34
2023-01-11T05:14:04.893Z,976.38
2023-01-11T05:15:04.867Z,976.37
2023-01-11T05:16:04.894Z,976.44
2023-01-11T05:17:04.843Z,976.47
2023-01-11T05:18:04.820Z,976.43
2023-01-11T05:19:04.851Z,976.37
2023-01-11T05:20:04.823Z,976.33
2023-01-11T05:21:04.812Z,976.31
2023-01-11T05:22:04.775Z,976.29
2023-01-11T05:23:04.784Z,976.42
2023-01-11T05:24:04.737Z,976.45
2023-01-11T05:25:04.764Z,976.45
2023-01-11T05:26:04.727Z,976.39
2023-01-11T05:27:04.724Z,976.38
2023-01-11T05:28:04.725Z,976.41
2023-01-11T05:29:04.725Z,976.34
2023-01-11T05:30:04.716Z,976.39
2023-01-11T05:31:04.685Z,976.41
2023-01-11T05:32:04.711Z,976.43
2023-01-11T05:33:04.665Z,976.50
2023-01-11T05:34:04.652Z,976.49
2023-01-11T05:35:04.616Z,976.32
2023-01-11T05:36:04.631Z,976.38
2023-01-11T05:37:04.636Z,976.43
2023-01-11T05:38:04.654Z,976.35
2023-01-11T05:39:04.575Z,976.39
2023-01-11T05:40:04.640Z,976.40
2023-01-11T05:41:04.572Z,976.32
2023-01-11T05:42:04.568Z,976.28
2023-01-11T05:43:04.538Z,976.26
2023-01-11T05:44:04.566Z,976.31
2023-01-11T05:45:04.501Z,976.27
2023-01-11T05:46:04.552Z,976.27
2023-01-11T05:47:04.503Z,976.28
2023-01-11T05:48:04.482Z,976.33
2023-01-11T05:49:04.501Z,976.29
2023-01-11T05:50:04.489Z,976.28
2023-01-11T05:51:04.435Z,976.26
2023-01-11T05:52:04.442Z,976.23
2023-01-11T05:53:04.430Z,976.24
2023-01-11T05:54:04.426Z,976.22
2023-01-11T05:55:04.405Z,976.17
2023-01-11T05:56:04.411Z,976.17
2023-01-11T05:57:04.395Z,976.18
2023-01-11T05:58:04.384Z,976.20
2023-01-11T05:59:04.599Z,976.13
2023-01-11T06:00:04.419Z,976.14
2023-01-11T06:01:04.327Z,976.11
2023-01-11T06:02:04.424Z,976.01
2023-01-11T06:03:04.379Z,976.08
2023-01-11T06:04:04.319Z,976.03
2023-01-11T06:05:04.272Z,975.96
2023-01-11T06:06:04.284Z,976.07
2023-01-11T06:07:04.335Z,975.99
2023-01-11T06:08:04.274Z,976.12
2023-01-11T06:09:04.238Z,976.14
2023-01-11T06:10:04.249Z,975.98
2023-01-11T06:11:04.622Z,975.95
2023-01-11T06:12:04.213Z,975.94
2023-01-11T06:13:04.198Z,975.89
2023-01-11T06:14:04.224Z,975.93
2023-01-11T06:15:04.163Z,975.91
2023-01-11T06:16:04.181Z,975.86
2023-01-11T06:17:04.138Z,975.91
2023-01-11T06:18:04.163Z,975.79
2023-01-11T06:19:04.147Z,975.83
2023-01-11T06:20:04.146Z,975.81
2023-01-11T06:21:04.084Z,975.86
2023-01-11T06:22:04.093Z,975.91
2023-01-11T06:23:04.080Z,975.88
2023-01-11T06:24:04.254Z,975.88
2023-01-11T06:25:04.043Z,975.88
2023-01-11T06:26:04.063Z,975.84
2023-01-11T06:27:04.042Z,975.85
2023-01-11T06:28:04.063Z,975.89
2023-01-11T06:29:04.019Z,975.84
2023-01-11T06:30:04.038Z,975.82
2023-01-11T06:31:04.100Z,975.84
2023-01-11T06:32:04.012Z,975.80
2023-01-11T06:33:03.974Z,975.87
2023-01-11T06:34:03.987Z,975.87
2023-01-11T06:35:03.932Z,975.78
2023-01-11T06:36:03.956Z,975.85
2023-01-11T06:37:03.932Z,975.85
2023-01-11T06:38:03.942Z,975.89
2023-01-11T06:39:04.558Z,975.89
2023-01-11T06:40:04.691Z,975.91
2023-01-11T06:41:03.863Z,975.80
2023-01-11T06:42:03.892Z,975.80
2023-01-11T06:43:03.875Z,975.70
2023-01-11T06:44:03.874Z,975.76
2023-01-11T06:45:03.820Z,975.80
2023-01-11T06:46:03.860Z,975.75
2023-01-11T06:47:03.800Z,975.69
2023-01-11T06:48:03.831Z,975.81
2023-01-11T06:49:03.823Z,975.77
2023-01-11T06:50:03.798Z,975.76
2023-01-11T06:51:03.767Z,975.76
2023-01-11T06:52:03.764Z,975.78
2023-01-11T06:53:03.731Z,975.78
2023-01-11T06:54:03.749Z,975.68
2023-01-11T06:55:03.711Z,975.66
2023-01-11T06:56:03.970Z,975.72
2023-01-11T06:57:03.728Z,975.72
2023-01-11T06:58:03.701Z,975.72
2023-01-11T06:59:03.678Z,975.75
2023-01-11T07:00:03.890Z,975.76
2023-01-11T07:01:03.672Z,975.67
2023-01-11T07:02:03.911Z,975.73
2023-01-11T07:03:03.639Z,975.76
2023-01-11T07:04:03.677Z,975.71
2023-01-11T07:05:03.597Z,975.75
2023-01-11T07:06:04.352Z,975.79
2023-01-11T07:07:03.581Z,975.79
2023-01-11T07:08:03.601Z,975.76
2023-01-11T07:09:03.577Z,975.71
2023-01-11T07:10:03.593Z,975.68
2023-01-11T07:11:03.609Z,975.70
2023-01-11T07:12:03.556Z,975.72
2023-01-11T07:13:03.510Z,975.83
2023-01-11T07:14:03.544Z,975.86
2023-01-11T07:15:03.546Z,975.83
2023-01-11T07:16:03.513Z,975.78
2023-01-11T07:17:03.479Z,975.84
2023-01-11T07:18:03.477Z,975.88
2023-01-11T07:19:04.253Z,975.85
2023-01-11T07:20:03.723Z,975.86
2023-01-11T07:21:03.594Z,975.90
2023-01-11T07:22:03.432Z,975.87
2023-01-11T07:23:03.403Z,975.90
2023-01-11T07:24:03.430Z,975.89
2023-01-11T07:25:03.409Z,975.88
2023-01-11T07:26:03.455Z,975.83
2023-01-11T07:27:03.352Z,975.90
2023-01-11T07:28:03.387Z,975.89
2023-01-11T07:29:03.330Z,975.88
2023-01-11T07:30:03.360Z,975.91
2023-01-11T07:31:03.379Z,976.00
2023-01-11T07:32:03.322Z,976.04
2023-01-11T07:33:03.298Z,975.98
2023-01-11T07:34:03.329Z,975.95
2023-01-11T07:35:03.264Z,976.07
2023-01-11T07:36:03.289Z,976.02
2023-01-11T07:37:03.238Z,976.00
2023-01-11T07:38:03.280Z,976.00
2023-01-11T07:39:04.127Z,975.96
2023-01-11T07:40:03.272Z,975.91
2023-01-11T07:41:03.358Z,975.98
2023-01-11T07:42:03.211Z,975.97
2023-01-11T07:43:03.178Z,975.98
2023-01-11T07:44:03.206Z,976.06
2023-01-11T07:45:03.195Z,976.04
2023-01-11T07:46:04.029Z,976.05
2023-01-11T07:47:03.151Z,976.06
2023-01-11T07:48:03.130Z,976.05
2023-01-11T07:49:03.141Z,976.05
2023-01-11T07:50:03.170Z,976.03
2023-01-11T07:51:03.080Z,976.10
2023-01-11T07:52:03.099Z,976.11
2023-01-11T07:53:03.409Z,976.07
2023-01-11T07:54:03.071Z,976.09
2023-01-11T07:55:03.058Z,976.12
2023-01-11T07:56:03.047Z,976.13
2023-01-11T07:57:03.015Z,976.07
2023-01-11T07:58:03.037Z,976.10
2023-01-11T07:59:02.994Z,976.13
2023-01-11T08:00:03.897Z,976.16
2023-01-11T08:01:03.841Z,976.30
2023-01-11T08:02:03.011Z,976.17
2023-01-11T08:03:03.181Z,976.20
2023-01-11T08:04:02.993Z,976.21
2023-01-11T08:05:03.418Z,976.15
2023-01-11T08:06:02.943Z,976.21
2023-01-11T08:07:02.991Z,976.14
2023-01-11T08:08:03.009Z,976.17
2023-01-11T08:09:02.876Z,976.16
2023-01-11T08:10:02.897Z,976.17
2023-01-11T08:11:04.919Z,976.22
2023-01-11T08:12:02.907Z,976.24
2023-01-11T08:13:02.898Z,976.19
2023-01-11T08:14:03.627Z,976.22
2023-01-11T08:15:02.805Z,976.20
2023-01-11T08:16:02.867Z,976.23
2023-01-11T08:17:02.836Z,976.27
2023-01-11T08:18:02.826Z,976.20
2023-01-11T08:19:02.769Z,976.23
2023-01-11T08:20:02.790Z,976.29
2023-01-11T08:21:02.777Z,976.19
2023-01-11T08:22:02.790Z,976.21
2023-01-11T08:23:02.743Z,976.24
2023-01-11T08:24:02.759Z,976.23
2023-01-11T08:25:02.720Z,976.27
2023-01-11T08:26:02.743Z,976.23
2023-01-11T08:27:02.759Z,976.34
2023-01-11T08:28:02.675Z,976.36
2023-01-11T08:29:02.656Z,976.38
2023-01-11T08:30:02.676Z,976.38
2023-01-11T08:31:02.719Z,976.36
2023-01-11T08:32:02.645Z,976.38
2023-01-11T08:33:02.617Z,976.39
2023-01-11T08:34:02.644Z,976.42
2023-01-11T08:35:02.587Z,976.44
2023-01-11T08:36:02.598Z,976.44
2023-01-11T08:37:02.610Z,976.45
2023-01-11T08:38:02.691Z,976.49
2023-01-11T08:39:02.538Z,976.45
2023-01-11T08:40:02.546Z,976.53
2023-01-11T08:41:02.826Z,976.57
2023-01-11T08:42:02.608Z,976.58
2023-01-11T08:43:02.540Z,976.59
2023-01-11T08:44:02.518Z,976.67
2023-01-11T08:45:02.494Z,976.71
2023-01-11T08:46:02.541Z,976.67
2023-01-11T08:47:02.475Z,976.76
2023-01-11T08:48:02.502Z,976.74
2023-01-11T08:49:02.436Z,976.70
2023-01-11T08:50:02.455Z,976.69
2023-01-11T08:51:02.467Z,976.76
2023-01-11T08:52:02.427Z,976.80
2023-01-11T08:53:02.400Z,976.82
2023-01-11T08:54:02.414Z,976.81
2023-01-11T08:55:02.365Z,976.83
2023-01-11T08:56:02.392Z,976.89
2023-01-11T08:57:03.302Z,976.86
2023-01-11T08:58:02.390Z,976.87
2023-01-11T08:59:02.446Z,976.84
2023-01-11T09:00:02.387Z,976.83
2023-01-11T09:01:02.436Z,976.83
2023-01-11T09:02:02.431Z,976.87
2023-01-11T09:03:02.454Z,976.89
2023-01-11T09:04:03.671Z,976.93
2023-01-11T09:05:02.247Z,977.01
2023-01-11T09:06:02.269Z,977.00
2023-01-11T09:07:02.262Z,976.98
2023-01-11T09:08:02.288Z,977.03
2023-01-11T09:09:02.224Z,977.00
2023-01-11T09:10:02.223Z,976.95
2023-01-11T09:11:02.174Z,976.92
2023-01-11T09:12:04.714Z,976.86
2023-01-11T09:13:02.163Z,976.85
2023-01-11T09:14:02.165Z,976.91
2023-01-11T09:15:02.131Z,976.98
2023-01-11T09:16:02.217Z,976.99
2023-01-11T09:17:02.118Z,977.07
2023-01-11T09:18:02.134Z,977.13
2023-01-11T09:19:10.374Z,977.05
2023-01-11T09:20:02.102Z,977.08
2023-01-11T09:21:02.059Z,977.12
2023-01-11T09:22:02.071Z,977.19
2023-01-11T09:23:02.053Z,977.28
2023-01-11T09:24:02.060Z,977.21
2023-01-11T09:25:02.032Z,977.25
2023-01-11T09:26:02.076Z,977.29
2023-01-11T09:27:02.068Z,977.24
2023-01-11T09:28:02.051Z,977.25
2023-01-11T09:29:02.081Z,977.20
2023-01-11T09:30:02.000Z,977.16
2023-01-11T09:31:02.012Z,977.24
2023-01-11T09:32:01.968Z,977.23
2023-01-11T09:33:01.917Z,977.25
2023-01-11T09:34:01.931Z,977.27
2023-01-11T09:35:01.901Z,977.27
2023-01-11T09:36:01.911Z,977.25
2023-01-11T09:37:01.882Z,977.26
2023-01-11T09:38:01.900Z,977.24
2023-01-11T09:39:01.849Z,977.31
2023-01-11T09:40:01.864Z,977.28
2023-01-11T09:41:01.832Z,977.26
2023-01-11T09:42:01.858Z,977.25
2023-01-11T09:43:01.813Z,977.30
2023-01-11T09:44:01.822Z,977.29
2023-01-11T09:45:01.806Z,977.30
2023-01-11T09:46:01.775Z,977.32
2023-01-11T09:47:01.789Z,977.37
2023-01-11T09:48:01.779Z,977.32
2023-01-11T09:49:01.765Z,977.32
2023-01-11T09:50:01.732Z,977.33
2023-01-11T09:51:01.798Z,977.28
2023-01-11T09:52:01.707Z,977.28
2023-01-11T09:53:01.760Z,977.27
2023-01-11T09:54:01.702Z,977.24
2023-01-11T09:55:01.698Z,977.26
2023-01-11T09:56:01.676Z,977.24
2023-01-11T09:57:01.689Z,977.17
2023-01-11T09:58:01.670Z,977.11
2023-01-11T09:59:01.664Z,977.07
2023-01-11T10:00:01.624Z,977.05
2023-01-11T10:01:01.798Z,976.97
2023-01-11T10:02:01.622Z,976.97
2023-01-11T10:03:01.602Z,976.95
2023-01-11T10:04:01.587Z,976.87
2023-01-11T10:05:01.621Z,976.95
2023-01-11T10:06:01.601Z,976.87
2023-01-11T10:07:01.568Z,976.94
2023-01-11T10:18:21.216Z,976.96
2023-01-11T10:18:27.730Z,976.91
2023-01-11T10:18:30.454Z,976.93
2023-01-11T10:18:34.250Z,976.88
2023-01-11T10:18:39.495Z,976.91
2023-01-11T10:19:31.456Z,976.87
2023-01-11T10:20:02.422Z,976.89
2023-01-11T10:21:01.391Z,976.89
2023-01-11T10:22:01.426Z,976.89
2023-01-11T10:23:01.389Z,976.84
2023-01-11T10:24:01.351Z,976.81
2023-01-11T10:25:01.363Z,976.83
2023-01-11T10:26:01.320Z,976.82
2023-01-11T10:27:01.365Z,976.86
2023-01-11T10:28:01.336Z,976.89
2023-01-11T10:29:01.329Z,976.90
2023-01-11T10:30:01.301Z,976.94
2023-01-11T10:31:01.371Z,976.92
2023-01-11T10:32:01.256Z,976.88
2023-01-11T10:33:01.270Z,976.91
2023-01-11T10:34:01.253Z,976.94
2023-01-11T10:35:01.249Z,976.91
2023-01-11T10:36:01.214Z,976.92
2023-01-11T10:37:01.228Z,976.94
2023-01-11T10:38:01.190Z,976.93
2023-01-11T10:39:01.230Z,976.91
2023-01-11T10:40:01.210Z,977.01
2023-01-11T10:41:01.194Z,976.98
2023-01-11T10:42:01.143Z,976.97
2023-01-11T10:43:01.149Z,977.02
2023-01-11T10:44:01.139Z,977.06
2023-01-11T10:45:01.139Z,977.11
2023-01-11T10:46:01.261Z,977.17
2023-01-11T10:47:01.121Z,977.09
2023-01-11T10:48:01.104Z,977.18
2023-01-11T10:49:01.069Z,977.20
2023-01-11T10:50:01.095Z,977.07
2023-01-11T10:51:01.071Z,977.20
2023-01-11T10:52:01.071Z,977.29
2023-01-11T10:53:01.081Z,977.31
2023-01-11T10:54:01.022Z,977.34
2023-01-11T10:55:01.010Z,977.44
2023-01-11T10:56:01.024Z,977.36
2023-01-11T10:57:03.017Z,977.31
2023-01-11T10:58:03.503Z,977.31
2023-01-11T10:59:00.991Z,977.36
2023-01-11T11:00:00.966Z,977.38
2023-01-11T11:01:01.253Z,977.37
2023-01-11T11:02:00.945Z,977.38
2023-01-11T11:03:00.938Z,977.37
2023-01-11T11:04:00.936Z,977.42
2023-01-11T11:05:00.918Z,977.41
2023-01-11T11:06:00.872Z,977.42
2023-01-11T11:07:00.898Z,977.40
2023-01-11T11:08:00.859Z,977.41
2023-01-11T11:09:00.903Z,977.45
2023-01-11T11:10:00.836Z,977.37
2023-01-11T11:11:00.840Z,977.43
2023-01-11T11:12:00.798Z,977.41
2023-01-11T11:13:00.825Z,977.36
2023-01-11T11:14:00.799Z,977.44
2023-01-11T11:15:00.796Z,977.56
2023-01-11T11:16:00.825Z,977.45
2023-01-11T11:17:00.820Z,977.42
2023-01-11T11:18:00.752Z,977.44
2023-01-11T11:19:00.776Z,977.43
2023-01-11T11:20:01.175Z,977.36
2023-01-11T11:21:00.745Z,977.36
2023-01-11T11:22:00.722Z,977.24
2023-01-11T11:23:00.734Z,977.17
2023-01-11T11:24:00.816Z,977.21
2023-01-11T11:25:00.997Z,977.23
2023-01-11T11:26:00.646Z,977.30
2023-01-11T11:27:00.728Z,977.30
2023-01-11T11:28:00.630Z,977.27
2023-01-11T11:29:00.653Z,977.36
2023-01-11T11:30:00.625Z,977.36
2023-01-11T11:31:00.627Z,977.30
2023-01-11T11:32:00.627Z,977.41
2023-01-11T11:33:00.601Z,977.28
2023-01-11T11:34:00.558Z,977.28
2023-01-11T11:35:00.580Z,977.38
2023-01-11T11:36:00.517Z,977.34
2023-01-11T11:37:00.534Z,977.29
2023-01-11T11:38:00.602Z,977.27
2023-01-11T11:39:00.794Z,977.38
2023-01-11T11:40:00.751Z,977.38
2023-01-11T11:41:00.681Z,977.35
2023-01-11T11:42:00.726Z,977.34
2023-01-11T11:43:00.615Z,977.41
2023-01-11T11:44:00.567Z,977.39
2023-01-11T11:45:00.836Z,977.40
2023-01-11T11:46:00.784Z,977.39
2023-01-11T11:47:00.680Z,977.43
2023-01-11T11:48:00.403Z,977.47
2023-01-11T11:49:00.402Z,977.42
2023-01-11T11:50:00.415Z,977.54
2023-01-11T11:51:00.489Z,977.51
2023-01-11T11:52:00.679Z,977.54
2023-01-11T11:53:00.435Z,977.58
2023-01-11T11:54:01.286Z,977.56
2023-01-11T11:55:00.466Z,977.61
2023-01-11T11:56:00.576Z,977.66
2023-01-11T11:57:00.430Z,977.62
2023-01-11T11:58:00.381Z,977.62
2023-01-11T11:59:04.565Z,977.60
2023-01-11T12:00:00.428Z,977.60
2023-01-11T12:01:00.362Z,977.58
2023-01-11T12:02:00.399Z,977.54
2023-01-11T12:03:00.247Z,977.52
2023-01-11T12:04:00.218Z,977.56
2023-01-11T12:05:00.268Z,977.55
2023-01-11T12:06:00.207Z,977.72
2023-01-11T12:07:00.196Z,977.70
2023-01-11T12:08:00.166Z,977.71
2023-01-11T12:09:00.177Z,977.80
2023-01-11T12:10:00.159Z,977.84
2023-01-11T12:11:00.205Z,977.90
2023-01-11T12:12:00.137Z,977.85
2023-01-11T12:13:00.169Z,977.87
2023-01-11T12:14:00.123Z,977.95
2023-01-11T12:15:00.237Z,977.83
2023-01-11T12:16:00.077Z,977.88
2023-01-11T12:17:00.283Z,977.89
2023-01-11T12:18:00.236Z,977.87
2023-01-11T12:19:00.306Z,977.81
2023-01-11T12:20:00.035Z,977.77
2023-01-11T12:21:00.035Z,977.78
2023-01-11T12:22:00.047Z,977.87
2023-01-11T12:23:00.005Z,977.91
2023-01-11T12:23:59.975Z,977.91
2023-01-11T12:24:59.986Z,977.98
2023-01-11T12:25:59.953Z,977.96
2023-01-11T12:26:59.994Z,977.91
2023-01-11T12:27:59.955Z,978.05
2023-01-11T12:28:59.981Z,977.89
2023-01-11T12:29:59.962Z,977.87
2023-01-11T12:31:00.059Z,977.89
2023-01-11T12:31:59.894Z,978.02
2023-01-11T12:32:59.954Z,977.94
2023-01-11T12:33:59.975Z,977.94